Time;durP1;ratioP1;P1;durP2;ratioP2;P2;SDS_P1;SDS_P2;PMS_P1;PMS_P2;Temp;Humidity;BMP_temperature;BMP_pressure;BME280_temperature;BME280_humidity;BME280_pressure;Samples;Min_cycle;Max_cycle;Signal;HPM_P1;HPM_P2
2024/01/29 00:04:27;;;;;;;21.9;11.8;;;;;;;-0.72;89.86;100638.33333333;;;;
2024/01/29 00:15:27;;;;;;;17.7;9.4;;;;;;;-0.82;90.17;100628.33333333;;;;
2024/01/29 00:25:27;;;;;;;17.7;9.4;;;;;;;-0.84;90.01;100630;;;;
2024/01/29 00:35:27;;;;;;;17.7;9.4;;;;;;;-0.84;89.93;100630;;;;
2024/01/29 00:45:27;;;;;;;21.8;11.7;;;;;;;-0.99;89.28;100656.66666667;;;;
2024/01/29 00:56:27;;;;;;;21.8;11.7;;;;;;;-1.19;88.7;100678.33333333;;;;
2024/01/29 01:06:27;;;;;;;21.8;11.7;;;;;;;-1.4;89.66;100695;;;;
2024/01/29 01:17:27;;;;;;;16.6;10.5;;;;;;;-1.4;89.8;100700;;;;
2024/01/29 01:28:27;;;;;;;16.6;10.5;;;;;;;-1.17;91;100686.66666667;;;;
2024/01/29 01:38:27;;;;;;;18.3;10.2;;;;;;;-1.12;91;100676.66666667;;;;
2024/01/29 01:48:27;;;;;;;18.3;10.2;;;;;;;-1.05;91.04;100660;;;;
2024/01/29 01:59:27;;;;;;;18.3;10.2;;;;;;;-0.98;90.83;100661.66666667;;;;
2024/01/29 02:09:28;;;;;;;19.9;9.7;;;;;;;-1.12;90.12;100660;;;;
2024/01/29 02:20:27;;;;;;;19.9;9.7;;;;;;;-1.37;89.26;100656.66666667;;;;
2024/01/29 02:31:27;;;;;;;19.9;9.7;;;;;;;-1.6;89.04;100666.66666667;;;;
2024/01/29 02:41:27;;;;;;;21.2;12.3;;;;;;;-1.79;89;100643.33333333;;;;
2024/01/29 02:52:28;;;;;;;21.2;12.3;;;;;;;-2.08;89.4;100651.66666667;;;;
2024/01/29 03:02:27;;;;;;;21.2;12.3;;;;;;;-2.09;89.3;100660;;;;
2024/01/29 03:13:27;;;;;;;16.9;10.8;;;;;;;-2.21;89.31;100656.66666667;;;;
2024/01/29 03:24:27;;;;;;;16.9;10.8;;;;;;;-2.31;89.08;100653.33333333;;;;
2024/01/29 03:34:27;;;;;;;16.9;10.8;;;;;;;-2.42;89.55;100650;;;;
2024/01/29 03:45:27;;;;;;;19.7;11.8;;;;;;;-2.46;89.69;100656.66666667;;;;
2024/01/29 03:56:27;;;;;;;19.7;11.8;;;;;;;-2.55;88.99;100631.66666667;;;;
2024/01/29 04:07:27;;;;;;;19.7;11.8;;;;;;;-2.6;89.04;100635;;;;
2024/01/29 04:17:27;;;;;;;20;12.3;;;;;;;-2.67;89.4;100620;;;;
2024/01/29 04:28:27;;;;;;;20;12.3;;;;;;;-2.75;89.16;100608.33333333;;;;
2024/01/29 04:39:27;;;;;;;19.6;9.6;;;;;;;-2.81;89.51;100600;;;;
2024/01/29 04:49:27;;;;;;;19.6;9.6;;;;;;;-2.83;89.23;100590;;;;
2024/01/29 04:59:28;;;;;;;19.6;9.6;;;;;;;-2.92;88.7;100600;;;;
2024/01/29 05:10:27;;;;;;;17.6;8.1;;;;;;;-3.08;88.8;100595;;;;
2024/01/29 05:21:27;;;;;;;17.6;8.1;;;;;;;-3.14;88.86;100598.33333333;;;;
2024/01/29 05:31:27;;;;;;;17.6;8.1;;;;;;;-3.18;88.92;100606.66666667;;;;
2024/01/29 05:41:27;;;;;;;20.7;9.3;;;;;;;-3.27;88.98;100605;;;;
2024/01/29 05:52:27;;;;;;;20.7;9.3;;;;;;;-3.35;88.97;100608.33333333;;;;
2024/01/29 06:02:27;;;;;;;20.7;9.3;;;;;;;-3.36;89.2;100615;;;;
2024/01/29 06:12:27;;;;;;;19.9;11.2;;;;;;;-3.31;89.88;100648.33333333;;;;
2024/01/29 06:23:28;;;;;;;19.9;11.2;;;;;;;-3.05;89.96;100650;;;;
2024/01/29 06:34:27;;;;;;;19.9;11.2;;;;;;;-3;89.64;100658.33333333;;;;
2024/01/29 06:45:28;;;;;;;16.3;9.6;;;;;;;-2.84;89.61;100648.33333333;;;;
2024/01/29 06:55:27;;;;;;;16.3;9.6;;;;;;;-2.78;89.48;100653.33333333;;;;
2024/01/29 07:06:27;;;;;;;16.3;9.6;;;;;;;-2.72;89.3;100636.66666667;;;;
2024/01/29 07:17:27;;;;;;;18.9;11.1;;;;;;;-2.58;89.05;100648.33333333;;;;
2024/01/29 07:27:27;;;;;;;18.9;11.1;;;;;;;-2.46;89.09;100641.66666667;;;;
2024/01/29 07:38:27;;;;;;;21.8;13.9;;;;;;;-2.22;89.31;100638.33333333;;;;
2024/01/29 07:48:27;;;;;;;21.8;13.9;;;;;;;-1.98;89.58;100638.33333333;;;;
2024/01/29 07:59:29;;;;;;;21.8;13.9;;;;;;;-1.68;89.41;100628.33333333;;;;
2024/01/29 08:09:27;;;;;;;35.8;20.4;;;;;;;-1.35;90.12;100611.66666667;;;;
2024/01/29 08:19:27;;;;;;;35.8;20.4;;;;;;;-0.92;89.89;100616.66666667;;;;
2024/01/29 08:30:27;;;;;;;35.8;20.4;;;;;;;-0.56;89.86;100611.66666667;;;;
2024/01/29 08:40:27;;;;;;;26.6;14;;;;;;;-0.14;89.99;100621.66666667;;;;
2024/01/29 08:50:27;;;;;;;26.6;14;;;;;;;0.13;89.63;100645;;;;
2024/01/29 09:00:27;;;;;;;26.6;14;;;;;;;0.57;89.47;100658.33333333;;;;
2024/01/29 09:11:27;;;;;;;24.6;13.8;;;;;;;0.74;88.62;100651.66666667;;;;
2024/01/29 09:21:30;;;;;;;24.6;13.8;;;;;;;0.89;88.67;100653.33333333;;;;
2024/01/29 09:32:27;;;;;;;24.6;13.8;;;;;;;1.51;88.71;100660;;;;
2024/01/29 09:43:27;;;;;;;29.2;15.3;;;;;;;2.22;88.39;100651.66666667;;;;
2024/01/29 09:53:27;;;;;;;29.2;15.3;;;;;;;2.72;87.62;100650;;;;
2024/01/29 10:03:27;;;;;;;29.2;15.3;;;;;;;3.21;87.42;100643.33333333;;;;
2024/01/29 10:13:27;;;;;;;20.3;14.2;;;;;;;3.73;86.59;100628.33333333;;;;
2024/01/29 10:23:28;;;;;;;20.3;14.2;;;;;;;4.27;85.71;100623.33333333;;;;
2024/01/29 10:34:28;;;;;;;20.3;14.2;;;;;;;4.85;82.67;100616.66666667;;;;
2024/01/29 10:44:27;;;;;;;21.4;13.6;;;;;;;5.32;81.76;100605;;;;
2024/01/29 10:54:27;;;;;;;21.4;13.6;;;;;;;5.56;78.87;100593.33333333;;;;
2024/01/29 11:05:27;;;;;;;21.4;13.6;;;;;;;5.99;74.77;100585;;;;
2024/01/29 11:15:27;;;;;;;15.6;10.7;;;;;;;6.28;73.3;100571.66666667;;;;
2024/01/29 11:25:28;;;;;;;15.6;10.7;;;;;;;7.04;75.08;100573.33333333;;;;
2024/01/29 11:36:27;;;;;;;15.6;10.7;;;;;;;7.08;67.78;100561.66666667;;;;
2024/01/29 11:47:28;;;;;;;11;6.7;;;;;;;7.26;65.18;100550;;;;
2024/01/29 11:57:30;;;;;;;11;6.7;;;;;;;7.57;63.81;100553.33333333;;;;
2024/01/29 12:07:28;;;;;;;10.3;6.1;;;;;;;7.54;64.35;100551.66666667;;;;
2024/01/29 12:17:28;;;;;;;10.3;6.1;;;;;;;8.18;64.08;100543.33333333;;;;
2024/01/29 12:28:28;;;;;;;10.3;6.1;;;;;;;7.9;60.41;100548.33333333;;;;
2024/01/29 12:38:27;;;;;;;8.6;5.7;;;;;;;8.41;60.25;100545;;;;
2024/01/29 12:49:28;;;;;;;8.6;5.7;;;;;;;8.65;62.54;100543.33333333;;;;
2024/01/29 13:00:28;;;;;;;8.6;5.7;;;;;;;8.79;63.3;100548.33333333;;;;
2024/01/29 13:11:27;;;;;;;8.1;4.7;;;;;;;8.81;60.37;100550;;;;
2024/01/29 13:21:28;;;;;;;8.1;4.7;;;;;;;8.72;64.45;100555;;;;
2024/01/29 13:32:28;;;;;;;8.1;4.7;;;;;;;8.48;65.95;100550;;;;
2024/01/29 13:43:28;;;;;;;23.8;14.8;;;;;;;8.31;66.61;100545;;;;
2024/01/29 13:53:28;;;;;;;23.8;14.8;;;;;;;8.11;67.22;100545;;;;
2024/01/29 14:04:28;;;;;;;23.8;14.8;;;;;;;8.04;67.38;100538.33333333;;;;
2024/01/29 14:14:28;;;;;;;18.3;12;;;;;;;7.87;67.54;100533.33333333;;;;
2024/01/29 14:25:28;;;;;;;18.3;12;;;;;;;7.51;68.02;100535;;;;
2024/01/29 14:35:28;;;;;;;18.3;12;;;;;;;7.23;68.86;100540;;;;
2024/01/29 14:45:28;;;;;;;15.8;9.8;;;;;;;6.83;69.9;100533.33333333;;;;
2024/01/29 14:55:28;;;;;;;15.8;9.8;;;;;;;6.38;71.23;100526.66666667;;;;
2024/01/29 15:06:28;;;;;;;28.4;17;;;;;;;5.89;73.54;100521.66666667;;;;
2024/01/29 15:17:28;;;;;;;28.4;17;;;;;;;5.37;74.08;100520;;;;
2024/01/29 15:27:28;;;;;;;28.4;17;;;;;;;4.92;75.45;100525;;;;
2024/01/29 15:38:28;;;;;;;18.5;10.1;;;;;;;4.36;76.73;100513.33333333;;;;
2024/01/29 15:49:29;;;;;;;18.5;10.1;;;;;;;3.85;78.21;100515;;;;
2024/01/29 15:59:28;;;;;;;18.5;10.1;;;;;;;3.4;78.92;100520;;;;
2024/01/29 16:09:28;;;;;;;19.1;10.8;;;;;;;3;79.79;100513.33333333;;;;
2024/01/29 16:19:28;;;;;;;19.1;10.8;;;;;;;2.77;81.58;100510;;;;
2024/01/29 16:30:28;;;;;;;19.1;10.8;;;;;;;2.48;82.43;100513.33333333;;;;
2024/01/29 16:41:28;;;;;;;23.2;13;;;;;;;2.22;82.58;100518.33333333;;;;
2024/01/29 16:51:28;;;;;;;23.2;13;;;;;;;1.96;83.16;100521.66666667;;;;
2024/01/29 17:02:28;;;;;;;23.2;13;;;;;;;1.73;83.53;100530;;;;
2024/01/29 17:12:28;;;;;;;34.5;19.2;;;;;;;1.61;84.15;100535;;;;
2024/01/29 17:23:28;;;;;;;34.5;19.2;;;;;;;1.37;84.29;100538.33333333;;;;
2024/01/29 17:33:28;;;;;;;34.5;19.2;;;;;;;1.27;84.95;100525;;;;
2024/01/29 17:43:28;;;;;;;29.4;18.2;;;;;;;1.07;85.15;100530;;;;
2024/01/29 17:54:28;;;;;;;29.4;18.2;;;;;;;0.86;85.3;100532.5;;;;
2024/01/29 18:04:28;;;;;;;29.4;18.2;;;;;;;0.81;86.26;100532.5;;;;
2024/01/29 18:14:28;;;;;;;27;15.3;;;;;;;0.67;86.01;100536;;;;
2024/01/29 18:24:28;;;;;;;27;15.3;;;;;;;0.47;85.79;100546;;;;
2024/01/29 18:35:28;;;;;;;27;15.3;;;;;;;0.35;86.83;100536;;;;
2024/01/29 18:45:28;;;;;;;29.5;17.1;;;;;;;0.22;87.17;100536;;;;
2024/01/29 18:55:28;;;;;;;29.5;17.1;;;;;;;0.26;87.95;100545;;;;
2024/01/29 19:06:28;;;;;;;50.2;28.8;;;;;;;0.26;88;100551.66666667;;;;
2024/01/29 19:16:28;;;;;;;50.2;28.8;;;;;;;0.22;88.07;100551.66666667;;;;
2024/01/29 19:27:28;;;;;;;50.2;28.8;;;;;;;0.1;87.57;100556.66666667;;;;
2024/01/29 19:38:29;;;;;;;45.6;25.4;;;;;;;-0.1;87.75;100560;;;;
2024/01/29 19:48:28;;;;;;;45.6;25.4;;;;;;;-0.22;87.98;100560;;;;
2024/01/29 19:59:28;;;;;;;45.6;25.4;;;;;;;-0.45;87.63;100566.66666667;;;;
2024/01/29 20:09:28;;;;;;;37.6;23.7;;;;;;;-0.63;87.08;100568.33333333;;;;
2024/01/29 20:19:29;;;;;;;37.6;23.7;;;;;;;-0.88;87.12;100565;;;;
2024/01/29 20:29:28;;;;;;;37.6;23.7;;;;;;;-0.91;88.59;100563.33333333;;;;
2024/01/29 20:40:30;;;;;;;29.6;19.2;;;;;;;-0.99;88.78;100566.66666667;;;;
2024/01/29 20:50:28;;;;;;;29.6;19.2;;;;;;;-0.98;89.74;100560;;;;
2024/01/29 21:01:30;;;;;;;29.6;19.2;;;;;;;-1.03;89.25;100556.66666667;;;;
2024/01/29 21:11:28;;;;;;;31.2;19.1;;;;;;;-1.2;89.06;100550;;;;
2024/01/29 21:21:28;;;;;;;31.2;19.1;;;;;;;-1.25;89.23;100555;;;;
2024/01/29 21:32:28;;;;;;;31.2;19.1;;;;;;;-1.37;89.42;100553.33333333;;;;
2024/01/29 21:43:28;;;;;;;28.4;18;;;;;;;-1.4;89.21;100553.33333333;;;;
2024/01/29 21:54:28;;;;;;;28.4;18;;;;;;;-1.35;89.74;100558.33333333;;;;
2024/01/29 22:05:30;;;;;;;29.4;17;;;;;;;-1.39;89.94;100550;;;;
2024/01/29 22:15:28;;;;;;;29.4;17;;;;;;;-1.46;89.57;100546.66666667;;;;
2024/01/29 22:25:28;;;;;;;29.4;17;;;;;;;-1.53;89.34;100548.33333333;;;;
2024/01/29 22:36:28;;;;;;;31.5;17.1;;;;;;;-1.64;89.18;100551.66666667;;;;
2024/01/29 22:46:28;;;;;;;31.5;17.1;;;;;;;-1.74;89.78;100550;;;;
2024/01/29 22:56:28;;;;;;;31.5;17.1;;;;;;;-1.71;89.4;100548.33333333;;;;
2024/01/29 23:07:28;;;;;;;27.7;17;;;;;;;-1.78;89.53;100546.66666667;;;;
2024/01/29 23:17:28;;;;;;;27.7;17;;;;;;;-1.88;89.25;100531.66666667;;;;
2024/01/29 23:28:29;;;;;;;27.7;17;;;;;;;-1.78;89.77;100525;;;;
2024/01/29 23:38:28;;;;;;;28.7;17.3;;;;;;;-1.81;89.31;100523.33333333;;;;
2024/01/29 23:49:28;;;;;;;28.7;17.3;;;;;;;-1.94;88.79;100518.33333333;;;;
2024/01/29 23:59:28;;;;;;;28.7;17.3;;;;;;;-2.09;89.24;100516.66666667;;;;
